createdAt,value
2022-08-28T00:01:36.279Z,15.23
2022-08-28T00:03:40.710Z,16.27
2022-08-28T00:05:47.132Z,16.98
2022-08-28T00:07:53.529Z,13.98
2022-08-28T00:09:57.847Z,16.55
2022-08-28T00:12:04.972Z,14.65
2022-08-28T00:14:11.576Z,13.60
2022-08-28T00:16:16.187Z,14.73
2022-08-28T00:18:22.876Z,11.77
2022-08-28T00:20:28.791Z,15.18
2022-08-28T00:22:33.376Z,12.40
2022-08-28T00:24:42.683Z,10.60
2022-08-28T00:27:01.540Z,13.05
2022-08-28T00:29:07.176Z,13.40
2022-08-28T00:31:11.611Z,12.35
2022-08-28T00:33:28.306Z,13.18
2022-08-28T00:35:32.818Z,11.90
2022-08-28T00:37:42.080Z,12.95
2022-08-28T00:39:46.581Z,14.43
2022-08-28T00:41:57.747Z,12.95
2022-08-28T00:44:19.513Z,11.45
2022-08-28T00:46:25.807Z,14.20
2022-08-28T00:48:30.718Z,11.38
2022-08-28T00:50:56.766Z,14.70
2022-08-28T00:53:07.065Z,10.93
2022-08-28T00:55:14.985Z,12.60
2022-08-28T00:57:27.155Z,10.60
2022-08-28T00:59:34.347Z,9.20
2022-08-28T01:01:40.277Z,8.00
2022-08-28T01:03:47.047Z,9.90
2022-08-28T01:05:53.712Z,9.65
2022-08-28T01:07:59.747Z,9.07
2022-08-28T01:10:07.738Z,9.98
2022-08-28T01:12:22.320Z,8.45
2022-08-28T01:14:27.681Z,8.85
2022-08-28T01:16:34.538Z,7.20
2022-08-28T01:18:41.950Z,7.28
2022-08-28T01:20:55.405Z,9.35
2022-08-28T01:23:13.356Z,8.23
2022-08-28T01:25:20.597Z,8.85
2022-08-28T01:27:25.134Z,8.88
2022-08-28T01:29:30.824Z,10.05
2022-08-28T01:31:37.668Z,7.80
2022-08-28T01:33:42.763Z,9.52
2022-08-28T01:35:53.003Z,8.60
2022-08-28T01:37:59.451Z,8.40
2022-08-28T01:40:06.213Z,9.80
2022-08-28T01:42:12.738Z,10.45
2022-08-28T01:44:20.375Z,8.88
2022-08-28T01:46:25.269Z,9.73
2022-08-28T01:48:32.656Z,7.80
2022-08-28T01:50:39.039Z,8.60
2022-08-28T01:52:43.994Z,7.68
2022-08-28T01:54:49.838Z,7.70
2022-08-28T01:56:56.445Z,6.63
2022-08-28T01:59:02.725Z,8.45
2022-08-28T02:01:22.931Z,7.00
2022-08-28T02:03:29.299Z,6.65
2022-08-28T02:05:34.235Z,6.78
2022-08-28T02:07:39.926Z,6.32
2022-08-28T02:09:46.883Z,9.55
2022-08-28T02:11:51.294Z,8.05
2022-08-28T02:13:58.521Z,6.13
2022-08-28T02:16:07.349Z,8.52
2022-08-28T02:18:12.193Z,5.05
2022-08-28T02:20:18.673Z,7.20
2022-08-28T02:22:25.677Z,5.68
2022-08-28T02:24:30.506Z,5.63
2022-08-28T02:26:36.846Z,3.55
2022-08-28T02:28:43.755Z,6.07
2022-08-28T02:30:49.469Z,7.22
2022-08-28T02:32:54.936Z,3.70
2022-08-28T02:35:01.543Z,3.83
2022-08-28T02:37:08.883Z,5.50
2022-08-28T02:39:17.454Z,5.32
2022-08-28T02:41:22.889Z,5.30
2022-08-28T02:43:28.085Z,3.88
2022-08-28T02:45:34.917Z,4.50
2022-08-28T02:47:43.577Z,4.30
2022-08-28T02:49:48.299Z,4.72
2022-08-28T02:51:55.038Z,3.63
2022-08-28T02:54:01.903Z,4.55
2022-08-28T02:56:06.322Z,5.53
2022-08-28T02:58:13.527Z,3.65
2022-08-28T03:00:21.198Z,4.72
2022-08-28T03:02:26.002Z,4.47
2022-08-28T03:04:34.608Z,4.53
2022-08-28T03:06:41.044Z,5.03
2022-08-28T03:08:45.624Z,6.32
2022-08-28T03:10:52.071Z,3.95
2022-08-28T03:12:58.426Z,5.15
2022-08-28T03:15:02.836Z,4.97
2022-08-28T03:17:08.539Z,4.00
2022-08-28T03:19:15.150Z,4.30
2022-08-28T03:21:19.524Z,4.10
2022-08-28T03:23:29.450Z,3.75
2022-08-28T03:25:35.688Z,5.97
2022-08-28T03:27:40.482Z,4.28
2022-08-28T03:29:47.284Z,5.93
2022-08-28T03:31:53.792Z,3.40
2022-08-28T03:33:58.795Z,5.60
2022-08-28T03:36:05.702Z,4.82
2022-08-28T03:38:12.664Z,4.75
2022-08-28T03:40:20.998Z,4.13
2022-08-28T03:42:25.614Z,13.65
2022-08-28T03:44:32.933Z,10.35
2022-08-28T03:46:40.393Z,6.70
2022-08-28T03:48:45.315Z,4.50
2022-08-28T03:50:51.772Z,4.05
2022-08-28T03:52:57.448Z,3.88
2022-08-28T03:55:02.826Z,3.60
2022-08-28T03:57:09.795Z,6.95
2022-08-28T03:59:14.172Z,6.60
2022-08-28T04:01:21.969Z,5.25
2022-08-28T04:03:26.849Z,4.88
2022-08-28T04:05:31.567Z,5.53
2022-08-28T04:07:38.341Z,4.10
2022-08-28T04:09:45.170Z,4.80
2022-08-28T04:11:49.940Z,3.78
2022-08-28T04:13:56.975Z,4.82
2022-08-28T04:16:06.343Z,5.85
2022-08-28T04:18:11.910Z,4.25
2022-08-28T04:20:18.710Z,6.20
2022-08-28T04:22:25.022Z,3.83
2022-08-28T04:24:29.786Z,3.70
2022-08-28T04:26:39.731Z,7.25
2022-08-28T04:28:46.414Z,6.57
2022-08-28T04:30:58.030Z,4.10
2022-08-28T04:33:05.074Z,4.95
2022-08-28T04:35:11.930Z,3.03
2022-08-28T04:37:17.051Z,3.25
2022-08-28T04:39:23.683Z,4.45
2022-08-28T04:41:32.106Z,3.58
2022-08-28T04:43:36.490Z,2.63
2022-08-28T04:45:47.501Z,4.90
2022-08-28T04:47:53.726Z,5.22
2022-08-28T04:49:58.076Z,2.67
2022-08-28T04:52:02.825Z,2.75
2022-08-28T04:54:09.190Z,6.78
2022-08-28T04:56:14.832Z,4.80
2022-08-28T04:58:23.896Z,7.00
2022-08-28T05:00:30.966Z,4.07
2022-08-28T05:02:35.378Z,4.05
2022-08-28T05:04:40.933Z,5.38
2022-08-28T05:06:48.171Z,3.17
2022-08-28T05:08:52.494Z,2.60
2022-08-28T05:11:01.329Z,2.78
2022-08-28T05:13:08.723Z,4.88
2022-08-28T05:15:13.565Z,3.88
2022-08-28T05:17:23.469Z,4.45
2022-08-28T05:19:30.106Z,3.92
2022-08-28T05:21:34.542Z,3.22
2022-08-28T05:23:41.510Z,4.43
2022-08-28T05:25:48.856Z,3.67
2022-08-28T05:27:53.550Z,3.92
2022-08-28T05:30:02.288Z,4.28
2022-08-28T05:32:09.163Z,4.22
2022-08-28T05:34:13.748Z,4.10
2022-08-28T05:36:19.824Z,4.65
2022-08-28T05:38:24.843Z,3.97
2022-08-28T05:40:29.360Z,3.60
2022-08-28T05:42:38.965Z,6.00
2022-08-28T05:44:43.546Z,5.82
2022-08-28T05:46:49.299Z,3.00
2022-08-28T05:48:54.904Z,3.03
2022-08-28T05:51:18.661Z,3.38
2022-08-28T05:53:23.796Z,3.75
2022-08-28T05:55:30.313Z,3.53
2022-08-28T05:57:36.834Z,3.38
2022-08-28T05:59:41.224Z,3.58
2022-08-28T06:01:48.958Z,3.22
2022-08-28T06:04:02.441Z,3.20
2022-08-28T06:06:07.371Z,4.03
2022-08-28T06:08:13.065Z,2.75
2022-08-28T06:10:18.175Z,3.20
2022-08-28T06:12:23.588Z,4.55
2022-08-28T06:14:28.107Z,3.15
2022-08-28T06:16:36.012Z,8.02
2022-08-28T06:18:40.434Z,2.88
2022-08-28T06:20:48.291Z,5.57
2022-08-28T06:22:54.658Z,3.33
2022-08-28T06:24:59.262Z,3.08
2022-08-28T06:27:04.933Z,4.00
2022-08-28T06:29:12.387Z,3.97
2022-08-28T06:31:23.230Z,3.13
2022-08-28T06:33:29.709Z,3.90
2022-08-28T06:35:40.899Z,7.65
2022-08-28T06:37:45.750Z,3.80
2022-08-28T06:39:50.715Z,4.82
2022-08-28T06:41:57.015Z,3.20
2022-08-28T06:44:01.751Z,3.45
2022-08-28T06:46:08.320Z,3.97
2022-08-28T06:48:19.077Z,5.50
2022-08-28T06:50:24.353Z,4.78
2022-08-28T06:52:31.236Z,5.28
2022-08-28T06:54:37.631Z,4.97
2022-08-28T06:56:43.083Z,4.65
2022-08-28T06:58:50.107Z,3.65
2022-08-28T07:01:03.201Z,3.15
2022-08-28T07:05:13.984Z,3.10
2022-08-28T07:07:32.618Z,3.15
2022-08-28T07:09:37.102Z,3.70
2022-08-28T07:11:44.572Z,2.88
2022-08-28T07:13:49.843Z,3.88
2022-08-28T07:15:55.364Z,3.38
2022-08-28T07:18:01.957Z,3.40
2022-08-28T07:20:08.773Z,3.35
2022-08-28T07:22:13.097Z,4.63
2022-08-28T07:24:20.080Z,2.83
2022-08-28T07:26:27.289Z,2.63
2022-08-28T07:28:31.941Z,2.28
2022-08-28T07:30:36.299Z,2.95
2022-08-28T07:32:42.826Z,5.05
2022-08-28T07:34:47.186Z,3.10
2022-08-28T07:36:58.047Z,4.13
2022-08-28T07:39:06.050Z,3.55
2022-08-28T07:41:21.902Z,3.15
2022-08-28T07:43:40.415Z,3.63
2022-08-28T07:45:49.609Z,2.47
2022-08-28T07:47:54.013Z,4.07
2022-08-28T07:50:03.396Z,2.17
2022-08-28T07:52:08.860Z,2.70
2022-08-28T07:54:17.784Z,3.97
2022-08-28T07:56:23.847Z,4.50
2022-08-28T07:58:30.133Z,2.63
2022-08-28T08:00:34.867Z,3.28
2022-08-28T08:02:41.326Z,4.05
2022-08-28T08:04:47.620Z,3.03
2022-08-28T08:06:57.841Z,4.43
2022-08-28T08:09:05.229Z,3.78
2022-08-28T08:11:13.942Z,2.47
2022-08-28T08:13:21.034Z,4.20
2022-08-28T08:15:29.438Z,3.85
2022-08-28T08:17:37.451Z,4.10
2022-08-28T08:19:41.953Z,4.18
2022-08-28T08:21:53.402Z,3.05
2022-08-28T08:24:01.558Z,2.78
2022-08-28T08:26:08.405Z,3.83
2022-08-28T08:28:13.984Z,5.00
2022-08-28T08:30:18.473Z,3.50
2022-08-28T08:32:22.976Z,3.70
2022-08-28T08:34:29.382Z,2.35
2022-08-28T08:36:36.137Z,2.28
2022-08-28T08:38:41.340Z,2.22
2022-08-28T08:40:48.780Z,1.77
2022-08-28T08:42:58.077Z,2.50
2022-08-28T08:45:05.371Z,2.08
2022-08-28T08:47:35.789Z,3.55
2022-08-28T08:49:41.930Z,2.78
2022-08-28T08:51:58.651Z,4.63
2022-08-28T08:54:10.177Z,3.67
2022-08-28T08:56:18.566Z,2.90
2022-08-28T08:58:30.259Z,3.45
2022-08-28T09:00:43.524Z,5.43
2022-08-28T09:03:03.742Z,5.05
2022-08-28T09:05:11.653Z,2.97
2022-08-28T09:07:33.902Z,4.68
2022-08-28T09:09:49.874Z,3.25
2022-08-28T09:12:03.004Z,2.60
2022-08-28T09:14:37.507Z,1.95
2022-08-28T09:16:43.883Z,2.38
2022-08-28T09:18:49.566Z,3.13
2022-08-28T09:20:56.996Z,2.13
2022-08-28T09:23:02.172Z,2.53
2022-08-28T09:25:56.612Z,3.10
2022-08-28T09:28:08.613Z,4.20
2022-08-28T09:30:13.624Z,3.97
2022-08-28T09:32:42.577Z,2.30
2022-08-28T09:35:07.338Z,3.17
2022-08-28T09:37:13.918Z,3.25
2022-08-28T09:39:27.221Z,2.97
2022-08-28T09:41:43.766Z,3.80
2022-08-28T09:43:48.497Z,2.80
2022-08-28T09:46:22.925Z,4.15
2022-08-28T09:48:40.098Z,4.30
2022-08-28T09:50:59.198Z,2.65
2022-08-28T09:53:17.605Z,2.13
2022-08-28T09:55:55.934Z,2.58
2022-08-28T09:58:00.321Z,1.92
2022-08-28T10:00:05.377Z,2.60
2022-08-28T10:02:33.083Z,5.72
2022-08-28T10:04:52.871Z,3.67
2022-08-28T10:07:25.773Z,4.63
2022-08-28T10:10:06.508Z,4.53
2022-08-28T10:12:44.266Z,4.50
2022-08-28T10:15:22.105Z,3.60
2022-08-28T10:17:49.697Z,3.47
2022-08-28T10:20:18.606Z,3.47
2022-08-28T10:22:42.901Z,3.47
2022-08-28T10:25:12.766Z,3.97
2022-08-28T10:27:58.907Z,7.78
2022-08-28T10:30:20.528Z,5.10
2022-08-28T10:33:04.123Z,6.53
2022-08-28T10:35:24.767Z,4.18
2022-08-28T10:37:56.156Z,6.63
2022-08-28T10:40:06.366Z,4.00
2022-08-28T10:42:11.379Z,9.10
2022-08-28T10:44:19.962Z,9.88
2022-08-28T10:46:31.484Z,11.57
2022-08-28T10:48:49.939Z,7.03
2022-08-28T10:50:59.879Z,6.13
2022-08-28T10:53:38.081Z,8.85
2022-08-28T10:56:04.112Z,11.38
2022-08-28T10:58:25.153Z,11.10
2022-08-28T11:00:34.013Z,7.70
2022-08-28T11:02:45.198Z,9.75
2022-08-28T11:04:50.483Z,8.02
2022-08-28T11:07:00.934Z,7.07
2022-08-28T11:09:20.583Z,7.40
2022-08-28T11:11:47.628Z,6.25
2022-08-28T11:13:59.465Z,9.68
2022-08-28T11:16:11.548Z,7.90
2022-08-28T11:18:39.162Z,7.97
2022-08-28T11:20:56.986Z,8.85
2022-08-28T11:23:18.451Z,7.13
2022-08-28T11:25:44.967Z,6.63
2022-08-28T11:28:24.895Z,5.75
2022-08-28T11:30:33.910Z,6.20
2022-08-28T11:32:53.609Z,8.85
2022-08-28T11:35:32.237Z,7.13
2022-08-28T11:37:44.411Z,11.20
2022-08-28T11:39:51.739Z,9.53
2022-08-28T11:42:28.414Z,9.80
2022-08-28T11:44:46.895Z,9.23
2022-08-28T11:46:52.585Z,15.25
2022-08-28T11:49:02.861Z,27.00
2022-08-28T11:51:39.567Z,22.10
2022-08-28T11:54:18.937Z,27.20
2022-08-28T11:57:03.273Z,31.05
2022-08-28T11:59:42.407Z,31.85
2022-08-28T12:01:48.969Z,24.98
2022-08-28T12:04:16.494Z,25.88
2022-08-28T12:06:34.229Z,26.13
2022-08-28T12:09:05.619Z,23.90
2022-08-28T12:11:10.161Z,33.10
2022-08-28T12:13:15.902Z,35.38
2022-08-28T12:15:40.876Z,30.90
2022-08-28T12:17:47.583Z,34.75
2022-08-28T12:20:13.761Z,35.92
2022-08-28T12:22:20.446Z,34.38
2022-08-28T12:24:25.453Z,36.00
2022-08-28T12:26:37.164Z,46.60
2022-08-28T12:29:07.256Z,45.70
2022-08-28T12:31:50.028Z,32.90
2022-08-28T12:34:04.898Z,22.52
2022-08-28T12:36:16.163Z,20.17
2022-08-28T12:38:22.106Z,28.67
2022-08-28T12:40:51.368Z,33.67
2022-08-28T12:43:02.730Z,41.22
2022-08-28T12:45:09.422Z,35.83
2022-08-28T12:47:17.440Z,36.88
2022-08-28T12:49:33.448Z,36.13
2022-08-28T12:51:38.743Z,33.38
2022-08-28T12:53:46.578Z,29.17
2022-08-28T12:55:51.099Z,27.05
2022-08-28T12:57:55.568Z,27.27
2022-08-28T13:00:09.149Z,26.58
2022-08-28T13:02:29.918Z,24.80
2022-08-28T13:04:37.847Z,28.05
2022-08-28T13:06:44.563Z,31.77
2022-08-28T13:08:49.651Z,31.70
2022-08-28T13:10:54.618Z,27.27
2022-08-28T13:13:07.415Z,25.67
2022-08-28T13:15:13.961Z,27.00
2022-08-28T13:17:49.884Z,24.08
2022-08-28T13:20:04.860Z,22.80
2022-08-28T13:22:41.445Z,24.27
2022-08-28T13:25:00.595Z,28.08
2022-08-28T13:27:11.264Z,25.83
2022-08-28T13:29:23.699Z,42.38
2022-08-28T13:31:39.254Z,20.35
2022-08-28T13:33:43.569Z,19.02
2022-08-28T13:35:48.065Z,20.67
2022-08-28T13:37:57.290Z,16.75
2022-08-28T13:40:06.768Z,16.25
2022-08-28T13:42:15.128Z,19.42
2022-08-28T13:44:37.930Z,22.00
2022-08-28T13:46:42.807Z,17.20
2022-08-28T13:48:47.423Z,15.38
2022-08-28T13:51:00.715Z,19.23
2022-08-28T13:53:07.499Z,17.27
2022-08-28T13:55:12.260Z,17.00
2022-08-28T13:57:18.852Z,22.83
2022-08-28T13:59:24.390Z,18.30
2022-08-28T14:01:48.754Z,17.50
2022-08-28T14:03:57.205Z,17.30
2022-08-28T14:06:03.893Z,16.27
2022-08-28T14:08:08.761Z,15.13
2022-08-28T14:10:13.179Z,15.77
2022-08-28T14:12:17.930Z,20.63
2022-08-28T14:14:22.418Z,16.83
2022-08-28T14:16:31.079Z,14.02
2022-08-28T14:18:35.728Z,14.43
2022-08-28T14:20:40.354Z,13.43
2022-08-28T14:22:46.822Z,12.52
2022-08-28T14:24:51.432Z,14.02
2022-08-28T14:26:55.729Z,12.40
2022-08-28T14:29:04.463Z,12.68
2022-08-28T14:31:13.725Z,12.00
2022-08-28T14:33:21.016Z,13.05
2022-08-28T14:35:28.884Z,11.88
2022-08-28T14:37:33.541Z,13.80
2022-08-28T14:39:37.958Z,13.80
2022-08-28T14:41:52.912Z,13.70
2022-08-28T14:43:57.987Z,12.10
2022-08-28T14:46:02.634Z,13.68
2022-08-28T14:48:12.282Z,11.18
2022-08-28T14:50:17.176Z,13.25
2022-08-28T14:52:21.610Z,14.15
2022-08-28T14:54:30.287Z,12.20
2022-08-28T14:56:34.900Z,12.60
2022-08-28T14:58:41.197Z,13.20
2022-08-28T15:00:51.476Z,13.63
2022-08-28T15:02:59.888Z,15.68
2022-08-28T15:05:04.716Z,13.50
2022-08-28T15:07:13.947Z,15.05
2022-08-28T15:09:18.304Z,13.18
2022-08-28T15:11:24.220Z,15.20
2022-08-28T15:13:32.545Z,13.00
2022-08-28T15:15:40.411Z,14.10
2022-08-28T15:17:45.144Z,11.45
2022-08-28T15:19:53.541Z,14.32
2022-08-28T15:21:58.858Z,15.23
2022-08-28T15:24:04.407Z,14.40
2022-08-28T15:26:15.526Z,13.00
2022-08-28T15:28:20.180Z,11.82
2022-08-28T15:30:27.427Z,11.07
2022-08-28T15:32:34.973Z,15.63
2022-08-28T15:34:39.720Z,12.55
2022-08-28T15:36:45.126Z,11.80
2022-08-28T15:39:15.442Z,14.00
2022-08-28T15:41:25.969Z,12.82
2022-08-28T15:43:30.432Z,12.20
2022-08-28T15:45:40.736Z,9.55
2022-08-28T15:47:45.917Z,17.13
2022-08-28T15:49:55.982Z,13.65
2022-08-28T15:52:07.127Z,13.70
2022-08-28T15:54:11.593Z,12.60
2022-08-28T15:56:17.659Z,10.95
2022-08-28T15:58:26.041Z,11.07
2022-08-28T16:00:32.724Z,11.00
2022-08-28T16:02:37.294Z,9.90
2022-08-28T16:04:46.212Z,13.32
2022-08-28T16:06:50.621Z,12.85
2022-08-28T16:09:06.742Z,9.23
2022-08-28T16:11:14.557Z,12.77
2022-08-28T16:13:19.510Z,12.63
2022-08-28T16:15:23.992Z,13.82
2022-08-28T16:17:32.650Z,11.57
2022-08-28T16:19:37.081Z,10.95
2022-08-28T16:21:41.731Z,10.82
2022-08-28T16:23:50.062Z,8.57
2022-08-28T16:25:54.736Z,8.07
2022-08-28T16:27:59.331Z,12.55
2022-08-28T16:30:15.863Z,10.05
2022-08-28T16:32:20.394Z,10.82
2022-08-28T16:34:29.448Z,9.57
2022-08-28T16:36:40.057Z,10.25
2022-08-28T16:38:46.659Z,10.32
2022-08-28T16:40:51.018Z,11.30
2022-08-28T16:42:58.927Z,11.77
2022-08-28T16:45:05.208Z,9.77
2022-08-28T16:47:09.871Z,8.63
2022-08-28T16:49:18.393Z,9.55
2022-08-28T16:51:27.880Z,9.75
2022-08-28T16:53:32.407Z,9.80
2022-08-28T16:55:42.376Z,8.80
2022-08-28T16:57:46.917Z,11.73
2022-08-28T16:59:53.549Z,8.05
2022-08-28T17:02:04.742Z,9.88
2022-08-28T17:04:09.643Z,10.38
2022-08-28T17:06:20.231Z,11.05
2022-08-28T17:08:27.936Z,9.85
2022-08-28T17:10:32.706Z,10.18
2022-08-28T17:12:37.375Z,10.15
2022-08-28T17:14:44.933Z,10.55
2022-08-28T17:16:49.609Z,9.95
2022-08-28T17:18:53.965Z,14.20
2022-08-28T17:21:14.706Z,12.63
2022-08-28T17:23:19.124Z,11.05
2022-08-28T17:25:24.126Z,8.82
2022-08-28T17:27:32.597Z,12.02
2022-08-28T17:29:39.451Z,10.95
2022-08-28T17:31:44.929Z,8.73
2022-08-28T17:33:53.978Z,10.15
2022-08-28T17:36:00.851Z,10.32
2022-08-28T17:38:05.527Z,11.55
2022-08-28T17:40:13.018Z,13.80
2022-08-28T17:42:17.411Z,8.65
2022-08-28T17:44:21.779Z,10.20
2022-08-28T17:46:32.908Z,9.55
2022-08-28T17:48:40.025Z,11.02
2022-08-28T17:50:47.617Z,10.98
2022-08-28T17:52:56.249Z,10.82
2022-08-28T17:55:00.783Z,10.75
2022-08-28T17:57:08.381Z,10.70
2022-08-28T17:59:15.042Z,9.55
2022-08-28T18:01:23.483Z,11.95
2022-08-28T18:03:30.872Z,9.50
2022-08-28T18:05:46.243Z,10.45
2022-08-28T18:07:53.417Z,11.25
2022-08-28T18:09:58.879Z,12.57
2022-08-28T18:12:12.641Z,11.55
2022-08-28T18:14:20.184Z,10.25
2022-08-28T18:16:31.085Z,8.38
2022-08-28T18:18:40.972Z,8.10
2022-08-28T18:20:46.614Z,8.70
2022-08-28T18:22:51.041Z,7.50
2022-08-28T18:24:57.322Z,9.43
2022-08-28T18:27:01.731Z,11.82
2022-08-28T18:29:06.066Z,10.68
2022-08-28T18:31:14.627Z,8.80
2022-08-28T18:33:20.657Z,9.13
2022-08-28T18:35:31.850Z,9.90
2022-08-28T18:37:39.872Z,8.50
2022-08-28T18:39:44.289Z,8.65
2022-08-28T18:41:48.943Z,11.65
2022-08-28T18:44:04.711Z,9.05
2022-08-28T18:46:11.111Z,7.95
2022-08-28T18:48:15.614Z,9.65
2022-08-28T18:50:29.178Z,11.15
2022-08-28T18:52:33.486Z,12.02
2022-08-28T18:54:38.099Z,10.57
2022-08-28T18:56:49.111Z,12.43
2022-08-28T18:58:54.842Z,16.73
2022-08-28T19:00:59.119Z,11.10
2022-08-28T19:03:07.046Z,6.80
2022-08-28T19:05:13.440Z,9.35
2022-08-28T19:07:17.895Z,8.43
2022-08-28T19:09:32.271Z,7.75
2022-08-28T19:11:38.247Z,7.97
2022-08-28T19:13:44.700Z,10.18
2022-08-28T19:15:55.805Z,7.22
2022-08-28T19:18:01.620Z,9.75
2022-08-28T19:20:11.766Z,9.35
2022-08-28T19:22:20.341Z,9.63
2022-08-28T19:24:25.479Z,8.60
2022-08-28T19:26:29.782Z,7.43
2022-08-28T19:28:38.627Z,12.00
2022-08-28T19:30:43.174Z,10.35
2022-08-28T19:32:48.354Z,10.80
2022-08-28T19:34:56.643Z,11.60
2022-08-28T19:37:01.619Z,9.38
2022-08-28T19:39:06.856Z,11.05
2022-08-28T19:41:16.072Z,9.27
2022-08-28T19:43:20.711Z,8.90
2022-08-28T19:45:25.296Z,10.02
2022-08-28T19:47:36.106Z,7.45
2022-08-28T19:49:41.735Z,10.45
2022-08-28T19:51:46.088Z,9.75
2022-08-28T19:53:58.442Z,10.48
2022-08-28T19:56:03.852Z,11.00
2022-08-28T19:58:11.371Z,10.27
2022-08-28T20:00:18.882Z,9.35
2022-08-28T20:02:23.866Z,11.68
2022-08-28T20:04:28.178Z,11.55
2022-08-28T20:06:39.455Z,10.10
2022-08-28T20:08:43.792Z,12.35
2022-08-28T20:10:48.726Z,12.02
2022-08-28T20:12:57.223Z,9.13
2022-08-28T20:15:03.710Z,9.07
2022-08-28T20:17:08.847Z,11.90
2022-08-28T20:19:18.603Z,13.65
2022-08-28T20:21:28.850Z,11.45
2022-08-28T20:23:42.439Z,13.98
2022-08-28T20:25:52.630Z,11.52
2022-08-28T20:28:01.367Z,10.65
2022-08-28T20:30:11.060Z,13.23
2022-08-28T20:32:19.620Z,12.13
2022-08-28T20:34:24.389Z,14.23
2022-08-28T20:36:30.332Z,24.98
2022-08-28T20:38:37.673Z,15.90
2022-08-28T20:40:42.193Z,15.60
2022-08-28T20:42:46.987Z,12.82
2022-08-28T20:44:56.727Z,17.00
2022-08-28T20:47:01.293Z,17.00
2022-08-28T20:49:05.735Z,14.70
2022-08-28T20:51:14.527Z,14.15
2022-08-28T20:53:27.313Z,12.05
2022-08-28T20:55:41.878Z,13.52
2022-08-28T20:57:50.745Z,13.45
2022-08-28T20:59:55.285Z,13.45
2022-08-28T21:02:01.838Z,14.88
2022-08-28T21:04:10.250Z,13.68
2022-08-28T21:06:14.515Z,16.30
2022-08-28T21:08:20.879Z,13.43
2022-08-28T21:10:29.635Z,12.85
2022-08-28T21:12:33.922Z,13.32
2022-08-28T21:14:38.737Z,13.45
2022-08-28T21:16:47.417Z,15.05
2022-08-28T21:19:13.964Z,13.32
2022-08-28T21:21:17.039Z,16.23
2022-08-28T21:23:27.443Z,14.55
2022-08-28T21:25:32.498Z,14.90
2022-08-28T21:27:37.413Z,13.40
2022-08-28T21:29:46.470Z,14.65
2022-08-28T21:31:52.931Z,16.48
2022-08-28T21:33:57.555Z,16.83
2022-08-28T21:36:01.843Z,20.02
2022-08-28T21:38:09.726Z,20.98
2022-08-28T21:40:15.606Z,16.05
2022-08-28T21:42:24.281Z,15.55
2022-08-28T21:44:28.864Z,13.98
2022-08-28T21:46:33.520Z,13.75
2022-08-28T21:48:42.391Z,15.60
2022-08-28T21:50:46.698Z,26.23
2022-08-28T21:52:51.688Z,36.22
2022-08-28T21:55:04.880Z,21.52
2022-08-28T21:57:09.670Z,25.15
2022-08-28T21:59:13.982Z,21.65
2022-08-28T22:01:21.708Z,21.27
2022-08-28T22:03:26.170Z,18.42
2022-08-28T22:05:30.931Z,23.33
2022-08-28T22:07:37.454Z,26.50
2022-08-28T22:09:43.825Z,23.08
2022-08-28T22:11:48.059Z,27.23
2022-08-28T22:13:57.482Z,24.10
2022-08-28T22:16:01.758Z,21.10
2022-08-28T22:18:06.675Z,18.02
2022-08-28T22:20:15.160Z,18.25
2022-08-28T22:22:31.871Z,17.35
2022-08-28T22:24:37.601Z,15.75
2022-08-28T22:26:46.119Z,15.65
2022-08-28T22:28:53.517Z,20.23
2022-08-28T22:30:58.097Z,19.23
2022-08-28T22:33:08.323Z,17.70
2022-08-28T22:35:12.692Z,17.70
2022-08-28T22:37:16.984Z,17.27
2022-08-28T22:39:25.606Z,15.32
2022-08-28T22:41:31.202Z,20.77
2022-08-28T22:43:35.811Z,23.73
2022-08-28T22:45:45.029Z,22.52
2022-08-28T22:47:53.205Z,20.10
2022-08-28T22:49:59.379Z,18.67
2022-08-28T22:52:07.856Z,19.15
2022-08-28T22:54:12.645Z,19.23
2022-08-28T22:56:17.956Z,15.00
2022-08-28T22:58:24.435Z,18.08
2022-08-28T23:00:29.060Z,14.88
2022-08-28T23:02:33.763Z,20.17
2022-08-28T23:04:42.552Z,19.25
2022-08-28T23:06:47.082Z,17.40
2022-08-28T23:08:51.624Z,14.60
2022-08-28T23:11:02.369Z,15.48
2022-08-28T23:13:07.173Z,15.52
2022-08-28T23:15:16.132Z,14.93
2022-08-28T23:17:25.089Z,16.95
2022-08-28T23:19:30.510Z,16.38
2022-08-28T23:21:34.883Z,14.52
2022-08-28T23:23:44.015Z,14.60
2022-08-28T23:25:48.481Z,15.27
2022-08-28T23:27:55.580Z,11.32
2022-08-28T23:30:01.994Z,15.57
2022-08-28T23:32:08.317Z,14.40
2022-08-28T23:34:15.587Z,15.63
2022-08-28T23:36:20.734Z,17.42
2022-08-28T23:38:24.980Z,18.85
2022-08-28T23:40:31.445Z,17.75
2022-08-28T23:42:39.039Z,15.93
2022-08-28T23:44:45.605Z,16.40
2022-08-28T23:46:51.715Z,20.35
2022-08-28T23:48:56.637Z,15.48
2022-08-28T23:51:01.624Z,14.75
2022-08-28T23:53:06.613Z,15.70
2022-08-28T23:55:17.368Z,15.07
2022-08-28T23:57:22.037Z,14.48
2022-08-28T23:59:26.712Z,14.65
